sensor_id;sensor_type;location;lat;lon;timestamp;pressure;altitude;pressure_sealevel;temperature;humidity
55271;BME280;41132;47.162;9.470;2023-03-16T00:02:00;96828.94;;;2.57;93.08
55271;BME280;41132;47.162;9.470;2023-03-16T00:04:26;96838.03;;;2.50;91.32
55271;BME280;41132;47.162;9.470;2023-03-16T00:06:51;96830.28;;;2.50;93.18
55271;BME280;41132;47.162;9.470;2023-03-16T00:09:16;96828.94;;;2.57;93.13
55271;BME280;41132;47.162;9.470;2023-03-16T00:11:42;96832.63;;;2.80;87.16
55271;BME280;41132;47.162;9.470;2023-03-16T00:14:07;96838.66;;;2.81;91.89
55271;BME280;41132;47.162;9.470;2023-03-16T00:16:33;96838.91;;;2.63;88.93
55271;BME280;41132;47.162;9.470;2023-03-16T00:19:00;96831.72;;;2.54;90.78
55271;BME280;41132;47.162;9.470;2023-03-16T00:21:28;96828.50;;;2.50;89.62
55271;BME280;41132;47.162;9.470;2023-03-16T00:23:57;96824.28;;;2.62;89.52
55271;BME280;41132;47.162;9.470;2023-03-16T00:26:22;96826.22;;;2.86;85.20
55271;BME280;41132;47.162;9.470;2023-03-16T00:28:48;96820.41;;;2.95;85.41
55271;BME280;41132;47.162;9.470;2023-03-16T00:31:13;96813.13;;;2.75;87.53
55271;BME280;41132;47.162;9.470;2023-03-16T00:33:40;96821.09;;;3.11;82.74
55271;BME280;41132;47.162;9.470;2023-03-16T00:36:07;96817.78;;;3.09;84.05
55271;BME280;41132;47.162;9.470;2023-03-16T00:38:37;96815.47;;;3.05;83.92
55271;BME280;41132;47.162;9.470;2023-03-16T00:41:04;96805.47;;;2.86;85.85
55271;BME280;41132;47.162;9.470;2023-03-16T00:43:31;96803.53;;;2.89;86.45
55271;BME280;41132;47.162;9.470;2023-03-16T00:46:05;96795.09;;;2.86;88.04
55271;BME280;41132;47.162;9.470;2023-03-16T00:48:35;96803.69;;;3.13;83.02
55271;BME280;41132;47.162;9.470;2023-03-16T00:51:02;96792.22;;;2.90;84.62
55271;BME280;41132;47.162;9.470;2023-03-16T00:53:29;96788.78;;;2.77;88.00
55271;BME280;41132;47.162;9.470;2023-03-16T00:55:54;96785.56;;;2.74;89.31
55271;BME280;41132;47.162;9.470;2023-03-16T00:58:19;96798.06;;;2.67;88.27
55271;BME280;41132;47.162;9.470;2023-03-16T01:00:45;96789.03;;;2.60;90.88
55271;BME280;41132;47.162;9.470;2023-03-16T01:03:11;96795.25;;;2.57;88.87
55271;BME280;41132;47.162;9.470;2023-03-16T01:05:40;96794.69;;;2.52;89.50
55271;BME280;41132;47.162;9.470;2023-03-16T01:08:07;96788.06;;;2.48;91.75
55271;BME280;41132;47.162;9.470;2023-03-16T01:10:34;96776.91;;;2.33;91.75
55271;BME280;41132;47.162;9.470;2023-03-16T01:12:59;96778.84;;;2.44;90.61
55271;BME280;41132;47.162;9.470;2023-03-16T01:15:27;96781.50;;;2.42;92.13
55271;BME280;41132;47.162;9.470;2023-03-16T01:17:53;96772.56;;;2.34;92.23
55271;BME280;41132;47.162;9.470;2023-03-16T01:20:18;96777.72;;;2.21;92.21
55271;BME280;41132;47.162;9.470;2023-03-16T01:22:44;96767.78;;;2.27;93.00
55271;BME280;41132;47.162;9.470;2023-03-16T01:25:11;96768.31;;;2.33;91.13
55271;BME280;41132;47.162;9.470;2023-03-16T01:27:36;96773.41;;;2.34;90.32
55271;BME280;41132;47.162;9.470;2023-03-16T01:30:02;96765.69;;;2.20;92.08
55271;BME280;41132;47.162;9.470;2023-03-16T01:32:29;96772.78;;;2.30;91.60
55271;BME280;41132;47.162;9.470;2023-03-16T01:34:54;96762.91;;;2.23;94.17
55271;BME280;41132;47.162;9.470;2023-03-16T01:37:20;96758.63;;;2.22;92.12
55271;BME280;41132;47.162;9.470;2023-03-16T01:39:50;96755.94;;;2.50;85.83
55271;BME280;41132;47.162;9.470;2023-03-16T01:42:15;96764.50;;;2.38;88.83
55271;BME280;41132;47.162;9.470;2023-03-16T01:44:58;96770.91;;;2.33;86.63
55271;BME280;41132;47.162;9.470;2023-03-16T01:47:26;96763.22;;;2.31;87.73
55271;BME280;41132;47.162;9.470;2023-03-16T01:49:53;96756.78;;;2.51;85.46
55271;BME280;41132;47.162;9.470;2023-03-16T01:52:22;96755.91;;;2.38;84.51
55271;BME280;41132;47.162;9.470;2023-03-16T01:54:53;96757.59;;;2.39;88.87
55271;BME280;41132;47.162;9.470;2023-03-16T01:57:22;96761.81;;;2.13;92.65
55271;BME280;41132;47.162;9.470;2023-03-16T01:59:52;96763.94;;;2.20;91.32
55271;BME280;41132;47.162;9.470;2023-03-16T02:02:22;96755.75;;;2.26;89.05
55271;BME280;41132;47.162;9.470;2023-03-16T02:05:04;96759.31;;;2.11;90.14
55271;BME280;41132;47.162;9.470;2023-03-16T02:07:34;96757.00;;;2.06;93.07
55271;BME280;41132;47.162;9.470;2023-03-16T02:10:03;96761.56;;;2.03;89.69
55271;BME280;41132;47.162;9.470;2023-03-16T02:12:28;96758.25;;;2.01;91.65
55271;BME280;41132;47.162;9.470;2023-03-16T02:14:54;96768.09;;;1.67;91.55
55271;BME280;41132;47.162;9.470;2023-03-16T02:17:22;96759.56;;;1.79;93.85
55271;BME280;41132;47.162;9.470;2023-03-16T02:22:52;96750.31;;;1.90;91.18
55271;BME280;41132;47.162;9.470;2023-03-16T02:25:21;96758.09;;;1.90;91.91
55271;BME280;41132;47.162;9.470;2023-03-16T02:30:27;96758.13;;;1.75;93.58
55271;BME280;41132;47.162;9.470;2023-03-16T02:32:53;96750.97;;;1.79;91.14
55271;BME280;41132;47.162;9.470;2023-03-16T02:35:19;96760.81;;;1.59;92.07
55271;BME280;41132;47.162;9.470;2023-03-16T02:37:45;96756.09;;;1.66;95.58
55271;BME280;41132;47.162;9.470;2023-03-16T02:40:18;96759.56;;;1.79;92.79
55271;BME280;41132;47.162;9.470;2023-03-16T02:42:55;96762.44;;;1.89;93.78
55271;BME280;41132;47.162;9.470;2023-03-16T02:45:30;96753.50;;;1.80;95.32
55271;BME280;41132;47.162;9.470;2023-03-16T02:48:00;96758.53;;;1.96;91.58
55271;BME280;41132;47.162;9.470;2023-03-16T02:50:27;96762.25;;;1.92;92.27
55271;BME280;41132;47.162;9.470;2023-03-16T02:52:53;96758.47;;;1.83;91.21
55271;BME280;41132;47.162;9.470;2023-03-16T02:55:18;96763.31;;;1.75;94.61
55271;BME280;41132;47.162;9.470;2023-03-16T02:57:46;96761.34;;;1.79;92.55
55271;BME280;41132;47.162;9.470;2023-03-16T03:00:11;96763.34;;;1.88;91.80
55271;BME280;41132;47.162;9.470;2023-03-16T03:02:41;96766.91;;;1.73;94.63
55271;BME280;41132;47.162;9.470;2023-03-16T03:05:07;96770.94;;;1.77;92.87
55271;BME280;41132;47.162;9.470;2023-03-16T03:07:32;96763.84;;;1.80;92.75
55271;BME280;41132;47.162;9.470;2023-03-16T03:09:58;96771.53;;;1.67;92.49
55271;BME280;41132;47.162;9.470;2023-03-16T03:12:23;96767.00;;;1.71;91.83
55271;BME280;41132;47.162;9.470;2023-03-16T03:14:48;96770.03;;;1.63;93.74
55271;BME280;41132;47.162;9.470;2023-03-16T03:17:14;96772.91;;;1.73;92.40
55271;BME280;41132;47.162;9.470;2023-03-16T03:19:39;96774.31;;;1.64;92.57
55271;BME280;41132;47.162;9.470;2023-03-16T03:22:05;96777.44;;;1.70;94.08
55271;BME280;41132;47.162;9.470;2023-03-16T03:24:34;96775.03;;;1.66;94.20
55271;BME280;41132;47.162;9.470;2023-03-16T03:26:59;96775.38;;;1.75;92.49
55271;BME280;41132;47.162;9.470;2023-03-16T03:29:28;96778.25;;;1.70;92.49
55271;BME280;41132;47.162;9.470;2023-03-16T03:32:05;96780.03;;;1.55;93.73
55271;BME280;41132;47.162;9.470;2023-03-16T03:34:31;96778.34;;;1.54;93.88
55271;BME280;41132;47.162;9.470;2023-03-16T03:36:57;96778.81;;;1.61;92.26
55271;BME280;41132;47.162;9.470;2023-03-16T03:39:23;96773.84;;;1.58;92.37
55271;BME280;41132;47.162;9.470;2023-03-16T03:41:49;96774.38;;;1.63;92.22
55271;BME280;41132;47.162;9.470;2023-03-16T03:44:14;96762.09;;;1.52;94.25
55271;BME280;41132;47.162;9.470;2023-03-16T03:46:40;96767.69;;;1.87;91.29
55271;BME280;41132;47.162;9.470;2023-03-16T03:49:05;96764.22;;;1.88;90.84
55271;BME280;41132;47.162;9.470;2023-03-16T03:51:31;96761.56;;;2.03;87.20
55271;BME280;41132;47.162;9.470;2023-03-16T03:53:57;96754.59;;;1.76;90.97
55271;BME280;41132;47.162;9.470;2023-03-16T03:56:23;96761.41;;;1.92;88.73
55271;BME280;41132;47.162;9.470;2023-03-16T03:58:48;96744.44;;;1.73;90.61
55271;BME280;41132;47.162;9.470;2023-03-16T04:01:14;96753.28;;;1.83;89.10
55271;BME280;41132;47.162;9.470;2023-03-16T04:03:39;96739.00;;;1.78;87.42
55271;BME280;41132;47.162;9.470;2023-03-16T04:06:05;96750.91;;;1.80;87.32
55271;BME280;41132;47.162;9.470;2023-03-16T04:08:32;96742.69;;;1.74;90.32
55271;BME280;41132;47.162;9.470;2023-03-16T04:10:58;96748.69;;;1.74;89.63
55271;BME280;41132;47.162;9.470;2023-03-16T04:13:23;96731.22;;;1.78;88.39
55271;BME280;41132;47.162;9.470;2023-03-16T04:15:58;96719.47;;;1.72;87.34
55271;BME280;41132;47.162;9.470;2023-03-16T04:18:24;96735.00;;;1.86;87.01
55271;BME280;41132;47.162;9.470;2023-03-16T04:20:49;96737.88;;;1.82;88.30
55271;BME280;41132;47.162;9.470;2023-03-16T04:23:18;96736.94;;;1.83;86.44
55271;BME280;41132;47.162;9.470;2023-03-16T04:25:43;96731.09;;;1.79;84.52
55271;BME280;41132;47.162;9.470;2023-03-16T04:28:09;96720.75;;;1.79;87.03
55271;BME280;41132;47.162;9.470;2023-03-16T04:30:35;96725.09;;;1.79;85.58
55271;BME280;41132;47.162;9.470;2023-03-16T04:33:00;96711.44;;;1.77;86.43
55271;BME280;41132;47.162;9.470;2023-03-16T04:35:26;96703.63;;;1.64;84.85
55271;BME280;41132;47.162;9.470;2023-03-16T04:37:51;96707.28;;;1.74;84.07
55271;BME280;41132;47.162;9.470;2023-03-16T04:40:16;96712.00;;;1.82;85.88
55271;BME280;41132;47.162;9.470;2023-03-16T04:42:44;96701.94;;;1.63;87.96
55271;BME280;41132;47.162;9.470;2023-03-16T04:45:10;96690.69;;;1.50;91.24
55271;BME280;41132;47.162;9.470;2023-03-16T04:47:36;96701.66;;;1.67;89.57
55271;BME280;41132;47.162;9.470;2023-03-16T04:50:02;96706.91;;;1.80;87.71
55271;BME280;41132;47.162;9.470;2023-03-16T04:52:27;96697.66;;;1.76;87.41
55271;BME280;41132;47.162;9.470;2023-03-16T04:54:53;96694.19;;;1.63;87.71
55271;BME280;41132;47.162;9.470;2023-03-16T04:57:18;96693.00;;;1.54;88.57
55271;BME280;41132;47.162;9.470;2023-03-16T04:59:44;96692.91;;;1.56;89.32
55271;BME280;41132;47.162;9.470;2023-03-16T05:02:09;96683.88;;;1.49;88.06
55271;BME280;41132;47.162;9.470;2023-03-16T05:04:35;96698.09;;;1.41;87.43
55271;BME280;41132;47.162;9.470;2023-03-16T05:07:00;96699.03;;;1.55;86.79
55271;BME280;41132;47.162;9.470;2023-03-16T05:09:26;96704.88;;;1.30;90.23
55271;BME280;41132;47.162;9.470;2023-03-16T05:11:51;96705.66;;;1.44;88.45
55271;BME280;41132;47.162;9.470;2023-03-16T05:14:16;96696.34;;;1.42;87.86
55271;BME280;41132;47.162;9.470;2023-03-16T05:16:42;96698.81;;;1.58;81.73
55271;BME280;41132;47.162;9.470;2023-03-16T05:19:07;96701.31;;;1.59;85.85
55271;BME280;41132;47.162;9.470;2023-03-16T05:21:32;96704.25;;;1.67;83.35
55271;BME280;41132;47.162;9.470;2023-03-16T05:23:58;96702.75;;;1.36;88.15
55271;BME280;41132;47.162;9.470;2023-03-16T05:26:23;96685.81;;;1.31;88.65
55271;BME280;41132;47.162;9.470;2023-03-16T05:28:50;96699.97;;;1.39;88.75
55271;BME280;41132;47.162;9.470;2023-03-16T05:31:16;96695.56;;;1.54;88.88
55271;BME280;41132;47.162;9.470;2023-03-16T05:33:42;96694.31;;;1.47;90.57
55271;BME280;41132;47.162;9.470;2023-03-16T05:36:09;96689.97;;;1.33;91.02
55271;BME280;41132;47.162;9.470;2023-03-16T05:38:34;96690.69;;;1.50;87.22
55271;BME280;41132;47.162;9.470;2023-03-16T05:41:01;96683.69;;;1.37;89.50
55271;BME280;41132;47.162;9.470;2023-03-16T05:43:28;96688.78;;;1.39;90.93
55271;BME280;41132;47.162;9.470;2023-03-16T05:45:54;96693.88;;;1.26;90.97
55271;BME280;41132;47.162;9.470;2023-03-16T05:48:20;96677.09;;;1.04;90.38
55271;BME280;41132;47.162;9.470;2023-03-16T05:50:46;96675.41;;;1.32;89.83
55271;BME280;41132;47.162;9.470;2023-03-16T05:53:11;96683.50;;;1.40;89.19
55271;BME280;41132;47.162;9.470;2023-03-16T05:55:37;96687.06;;;1.66;86.79
55271;BME280;41132;47.162;9.470;2023-03-16T05:58:03;96678.16;;;1.43;90.03
55271;BME280;41132;47.162;9.470;2023-03-16T06:00:28;96662.94;;;1.39;89.79
55271;BME280;41132;47.162;9.470;2023-03-16T06:02:54;96677.31;;;1.57;86.36
55271;BME280;41132;47.162;9.470;2023-03-16T06:05:20;96685.47;;;1.37;89.36
55271;BME280;41132;47.162;9.470;2023-03-16T06:07:47;96684.16;;;1.44;89.05
55271;BME280;41132;47.162;9.470;2023-03-16T06:10:13;96687.28;;;1.49;84.42
55271;BME280;41132;47.162;9.470;2023-03-16T06:12:39;96686.03;;;1.69;83.73
55271;BME280;41132;47.162;9.470;2023-03-16T06:15:06;96684.59;;;1.92;80.59
55271;BME280;41132;47.162;9.470;2023-03-16T06:17:32;96674.56;;;1.73;85.41
55271;BME280;41132;47.162;9.470;2023-03-16T06:19:58;96679.16;;;1.82;82.23
55271;BME280;41132;47.162;9.470;2023-03-16T06:22:23;96678.53;;;1.79;86.85
55271;BME280;41132;47.162;9.470;2023-03-16T06:24:49;96662.97;;;1.66;84.48
55271;BME280;41132;47.162;9.470;2023-03-16T06:27:15;96675.69;;;1.69;85.16
55271;BME280;41132;47.162;9.470;2023-03-16T06:29:40;96682.22;;;1.75;86.95
55271;BME280;41132;47.162;9.470;2023-03-16T06:32:06;96697.09;;;1.85;85.87
55271;BME280;41132;47.162;9.470;2023-03-16T06:34:32;96692.50;;;2.03;81.00
55271;BME280;41132;47.162;9.470;2023-03-16T06:36:58;96694.75;;;1.54;89.19
55271;BME280;41132;47.162;9.470;2023-03-16T06:39:23;96687.06;;;1.52;89.99
55271;BME280;41132;47.162;9.470;2023-03-16T06:41:49;96692.09;;;1.55;85.82
55271;BME280;41132;47.162;9.470;2023-03-16T06:44:14;96699.88;;;1.82;82.70
55271;BME280;41132;47.162;9.470;2023-03-16T06:46:40;96694.19;;;1.90;78.77
55271;BME280;41132;47.162;9.470;2023-03-16T06:49:05;96698.19;;;1.96;73.74
55271;BME280;41132;47.162;9.470;2023-03-16T06:51:31;96685.69;;;2.15;72.32
55271;BME280;41132;47.162;9.470;2023-03-16T06:53:56;96692.56;;;2.29;72.90
55271;BME280;41132;47.162;9.470;2023-03-16T06:56:22;96690.22;;;2.51;76.83
55271;BME280;41132;47.162;9.470;2023-03-16T06:58:48;96688.91;;;3.23;68.85
55271;BME280;41132;47.162;9.470;2023-03-16T07:01:13;96689.22;;;3.68;66.06
55271;BME280;41132;47.162;9.470;2023-03-16T07:03:38;96698.53;;;4.31;64.29
55271;BME280;41132;47.162;9.470;2023-03-16T07:06:04;96707.41;;;4.40;61.06
55271;BME280;41132;47.162;9.470;2023-03-16T07:08:30;96709.00;;;4.54;58.97
55271;BME280;41132;47.162;9.470;2023-03-16T07:10:56;96696.00;;;4.89;56.27
55271;BME280;41132;47.162;9.470;2023-03-16T07:13:21;96698.19;;;5.29;57.96
55271;BME280;41132;47.162;9.470;2023-03-16T07:15:49;96688.56;;;5.63;56.04
55271;BME280;41132;47.162;9.470;2023-03-16T07:18:16;96701.31;;;6.00;51.89
55271;BME280;41132;47.162;9.470;2023-03-16T07:20:42;96697.44;;;6.27;49.95
55271;BME280;41132;47.162;9.470;2023-03-16T07:23:08;96704.63;;;6.35;54.44
55271;BME280;41132;47.162;9.470;2023-03-16T07:25:33;96701.38;;;6.75;49.80
55271;BME280;41132;47.162;9.470;2023-03-16T07:27:59;96708.25;;;6.55;53.99
55271;BME280;41132;47.162;9.470;2023-03-16T07:30:24;96711.72;;;6.12;53.35
55271;BME280;41132;47.162;9.470;2023-03-16T07:32:50;96699.41;;;6.67;51.65
55271;BME280;41132;47.162;9.470;2023-03-16T07:35:16;96698.84;;;6.63;52.37
55271;BME280;41132;47.162;9.470;2023-03-16T07:37:42;96696.59;;;7.01;48.94
55271;BME280;41132;47.162;9.470;2023-03-16T07:40:08;96693.16;;;6.58;49.54
55271;BME280;41132;47.162;9.470;2023-03-16T07:42:35;96696.66;;;7.10;52.33
55271;BME280;41132;47.162;9.470;2023-03-16T07:45:01;96691.41;;;6.59;55.45
55271;BME280;41132;47.162;9.470;2023-03-16T07:47:26;96692.81;;;6.52;55.22
55271;BME280;41132;47.162;9.470;2023-03-16T07:49:52;96701.06;;;6.89;48.24
55271;BME280;41132;47.162;9.470;2023-03-16T07:52:18;96677.91;;;6.75;49.97
55271;BME280;41132;47.162;9.470;2023-03-16T07:54:43;96690.50;;;6.69;50.16
55271;BME280;41132;47.162;9.470;2023-03-16T07:57:08;96671.84;;;6.53;51.51
55271;BME280;41132;47.162;9.470;2023-03-16T07:59:34;96675.22;;;6.65;49.57
55271;BME280;41132;47.162;9.470;2023-03-16T08:01:59;96683.31;;;7.35;49.17
55271;BME280;41132;47.162;9.470;2023-03-16T08:04:24;96683.53;;;7.01;49.37
55271;BME280;41132;47.162;9.470;2023-03-16T08:06:50;96675.97;;;6.77;51.54
55271;BME280;41132;47.162;9.470;2023-03-16T08:09:24;96683.88;;;6.86;50.60
55271;BME280;41132;47.162;9.470;2023-03-16T08:11:49;96680.88;;;6.91;51.07
55271;BME280;41132;47.162;9.470;2023-03-16T08:14:15;96671.00;;;6.95;49.21
55271;BME280;41132;47.162;9.470;2023-03-16T08:16:40;96671.66;;;7.39;49.31
55271;BME280;41132;47.162;9.470;2023-03-16T08:19:05;96670.16;;;7.46;51.65
55271;BME280;41132;47.162;9.470;2023-03-16T08:21:31;96675.19;;;7.68;49.92
55271;BME280;41132;47.162;9.470;2023-03-16T08:23:57;96663.69;;;8.10;44.82
55271;BME280;41132;47.162;9.470;2023-03-16T08:26:22;96671.28;;;8.71;47.38
55271;BME280;41132;47.162;9.470;2023-03-16T08:28:50;96669.47;;;8.91;48.73
55271;BME280;41132;47.162;9.470;2023-03-16T08:31:16;96665.22;;;8.81;44.60
55271;BME280;41132;47.162;9.470;2023-03-16T08:33:44;96676.50;;;8.91;47.19
55271;BME280;41132;47.162;9.470;2023-03-16T08:36:13;96659.44;;;9.24;42.45
55271;BME280;41132;47.162;9.470;2023-03-16T08:38:40;96653.22;;;8.97;42.12
55271;BME280;41132;47.162;9.470;2023-03-16T08:41:06;96658.75;;;9.59;39.14
55271;BME280;41132;47.162;9.470;2023-03-16T08:43:32;96652.44;;;9.80;38.18
55271;BME280;41132;47.162;9.470;2023-03-16T08:45:57;96657.00;;;9.78;43.94
55271;BME280;41132;47.162;9.470;2023-03-16T08:48:23;96641.53;;;9.57;39.02
55271;BME280;41132;47.162;9.470;2023-03-16T08:50:49;96655.34;;;10.04;39.45
55271;BME280;41132;47.162;9.470;2023-03-16T08:53:16;96656.31;;;10.21;37.36
55271;BME280;41132;47.162;9.470;2023-03-16T08:55:41;96651.72;;;10.33;36.17
55271;BME280;41132;47.162;9.470;2023-03-16T08:58:08;96659.63;;;10.41;37.83
55271;BME280;41132;47.162;9.470;2023-03-16T09:00:34;96653.84;;;10.20;37.93
55271;BME280;41132;47.162;9.470;2023-03-16T09:03:00;96654.94;;;10.45;34.58
55271;BME280;41132;47.162;9.470;2023-03-16T09:05:27;96654.03;;;10.54;33.66
55271;BME280;41132;47.162;9.470;2023-03-16T09:07:52;96637.59;;;10.52;33.75
55271;BME280;41132;47.162;9.470;2023-03-16T09:10:18;96648.81;;;10.62;35.33
55271;BME280;41132;47.162;9.470;2023-03-16T09:12:44;96645.34;;;10.80;37.43
55271;BME280;41132;47.162;9.470;2023-03-16T09:15:11;96657.69;;;10.87;36.28
55271;BME280;41132;47.162;9.470;2023-03-16T09:17:38;96648.19;;;10.86;36.09
55271;BME280;41132;47.162;9.470;2023-03-16T09:20:06;96634.66;;;10.99;36.21
55271;BME280;41132;47.162;9.470;2023-03-16T09:22:34;96637.16;;;11.09;34.79
55271;BME280;41132;47.162;9.470;2023-03-16T09:25:00;96641.97;;;11.14;34.17
55271;BME280;41132;47.162;9.470;2023-03-16T09:27:25;96630.56;;;11.05;34.56
55271;BME280;41132;47.162;9.470;2023-03-16T09:29:51;96628.97;;;11.12;38.33
55271;BME280;41132;47.162;9.470;2023-03-16T09:32:20;96633.81;;;11.25;34.73
55271;BME280;41132;47.162;9.470;2023-03-16T09:34:45;96629.28;;;11.43;32.81
55271;BME280;41132;47.162;9.470;2023-03-16T09:37:11;96626.75;;;11.25;36.25
55271;BME280;41132;47.162;9.470;2023-03-16T09:39:36;96626.81;;;11.42;37.48
55271;BME280;41132;47.162;9.470;2023-03-16T09:47:32;96610.31;;;11.66;33.88
55271;BME280;41132;47.162;9.470;2023-03-16T09:50:04;96604.28;;;11.82;33.43
55271;BME280;41132;47.162;9.470;2023-03-16T09:57:38;96598.59;;;11.95;31.44
55271;BME280;41132;47.162;9.470;2023-03-16T10:00:23;96597.28;;;11.90;35.09
55271;BME280;41132;47.162;9.470;2023-03-16T10:05:34;96590.97;;;11.75;31.97
55271;BME280;41132;47.162;9.470;2023-03-16T10:08:09;96588.84;;;11.87;33.34
55271;BME280;41132;47.162;9.470;2023-03-16T10:13:38;96570.84;;;12.25;32.10
55271;BME280;41132;47.162;9.470;2023-03-16T10:16:13;96569.34;;;11.98;31.46
55271;BME280;41132;47.162;9.470;2023-03-16T10:18:48;96569.69;;;12.11;31.44
55271;BME280;41132;47.162;9.470;2023-03-16T10:21:16;96568.06;;;12.26;32.41
55271;BME280;41132;47.162;9.470;2023-03-16T10:23:46;96565.25;;;12.20;31.19
55271;BME280;41132;47.162;9.470;2023-03-16T10:26:21;96575.59;;;12.29;29.88
55271;BME280;41132;47.162;9.470;2023-03-16T10:28:48;96565.75;;;12.15;32.44
55271;BME280;41132;47.162;9.470;2023-03-16T10:31:15;96564.41;;;12.19;31.64
55271;BME280;41132;47.162;9.470;2023-03-16T10:33:41;96551.94;;;12.13;31.53
55271;BME280;41132;47.162;9.470;2023-03-16T10:36:33;96551.25;;;11.95;32.04
55271;BME280;41132;47.162;9.470;2023-03-16T10:39:04;96546.31;;;12.08;32.65
55271;BME280;41132;47.162;9.470;2023-03-16T10:41:35;96547.97;;;12.33;31.58
55271;BME280;41132;47.162;9.470;2023-03-16T10:44:21;96526.38;;;11.81;31.95
55271;BME280;41132;47.162;9.470;2023-03-16T10:46:50;96524.97;;;11.95;32.93
55271;BME280;41132;47.162;9.470;2023-03-16T10:49:27;96527.25;;;11.89;33.83
55271;BME280;41132;47.162;9.470;2023-03-16T10:51:58;96527.34;;;11.71;33.01
55271;BME280;41132;47.162;9.470;2023-03-16T10:54:29;96531.13;;;11.61;35.72
55271;BME280;41132;47.162;9.470;2023-03-16T10:56:57;96515.84;;;11.56;32.20
55271;BME280;41132;47.162;9.470;2023-03-16T11:01:54;96504.66;;;11.03;36.22
55271;BME280;41132;47.162;9.470;2023-03-16T11:04:19;96504.56;;;11.21;35.55
55271;BME280;41132;47.162;9.470;2023-03-16T11:07:06;96503.94;;;10.85;39.24
55271;BME280;41132;47.162;9.470;2023-03-16T11:09:33;96497.19;;;11.25;36.27
55271;BME280;41132;47.162;9.470;2023-03-16T11:12:27;96499.28;;;11.13;37.36
55271;BME280;41132;47.162;9.470;2023-03-16T11:15:01;96498.66;;;10.77;39.16
55271;BME280;41132;47.162;9.470;2023-03-16T11:20:02;96498.53;;;10.86;40.85
55271;BME280;41132;47.162;9.470;2023-03-16T11:22:39;96496.44;;;10.98;38.46
55271;BME280;41132;47.162;9.470;2023-03-16T11:25:13;96490.88;;;10.67;38.96
55271;BME280;41132;47.162;9.470;2023-03-16T11:33:00;96472.56;;;10.75;36.19
55271;BME280;41132;47.162;9.470;2023-03-16T11:35:52;96479.06;;;10.63;39.18
55271;BME280;41132;47.162;9.470;2023-03-16T11:38:49;96476.78;;;10.68;39.03
55271;BME280;41132;47.162;9.470;2023-03-16T11:41:24;96475.69;;;10.79;40.82
55271;BME280;41132;47.162;9.470;2023-03-16T11:44:00;96470.41;;;10.71;41.27
55271;BME280;41132;47.162;9.470;2023-03-16T11:46:30;96462.72;;;10.77;42.30
55271;BME280;41132;47.162;9.470;2023-03-16T11:49:15;96453.13;;;10.60;40.62
55271;BME280;41132;47.162;9.470;2023-03-16T11:51:57;96458.25;;;10.70;41.08
55271;BME280;41132;47.162;9.470;2023-03-16T12:08:50;96444.41;;;10.94;35.70
55271;BME280;41132;47.162;9.470;2023-03-16T12:11:47;96436.19;;;10.89;35.52
55271;BME280;41132;47.162;9.470;2023-03-16T12:14:27;96433.38;;;10.82;36.00
55271;BME280;41132;47.162;9.470;2023-03-16T12:19:41;96429.31;;;10.96;34.31
55271;BME280;41132;47.162;9.470;2023-03-16T12:22:19;96416.19;;;10.96;37.31
55271;BME280;41132;47.162;9.470;2023-03-16T12:24:46;96402.19;;;10.87;33.80
55271;BME280;41132;47.162;9.470;2023-03-16T12:27:19;96405.66;;;10.96;35.63
55271;BME280;41132;47.162;9.470;2023-03-16T12:30:35;96415.91;;;11.23;34.35
55271;BME280;41132;47.162;9.470;2023-03-16T12:33:07;96416.59;;;11.34;35.20
55271;BME280;41132;47.162;9.470;2023-03-16T12:35:51;96402.78;;;11.23;33.68
55271;BME280;41132;47.162;9.470;2023-03-16T12:38:34;96391.78;;;11.20;34.54
55271;BME280;41132;47.162;9.470;2023-03-16T12:49:13;96395.19;;;11.04;39.63
55271;BME280;41132;47.162;9.470;2023-03-16T12:51:41;96381.22;;;11.03;40.95
55271;BME280;41132;47.162;9.470;2023-03-16T12:54:48;96376.63;;;10.97;40.95
55271;BME280;41132;47.162;9.470;2023-03-16T12:57:15;96378.63;;;11.12;42.63
55271;BME280;41132;47.162;9.470;2023-03-16T12:59:45;96381.88;;;11.05;41.02
55271;BME280;41132;47.162;9.470;2023-03-16T13:02:38;96373.50;;;10.94;40.53
55271;BME280;41132;47.162;9.470;2023-03-16T13:05:28;96383.34;;;10.92;39.13
55271;BME280;41132;47.162;9.470;2023-03-16T13:08:09;96378.97;;;11.08;39.51
55271;BME280;41132;47.162;9.470;2023-03-16T13:10:35;96382.75;;;11.22;39.74
55271;BME280;41132;47.162;9.470;2023-03-16T13:13:14;96383.56;;;11.23;36.57
55271;BME280;41132;47.162;9.470;2023-03-16T13:15:41;96385.69;;;11.27;38.14
55271;BME280;41132;47.162;9.470;2023-03-16T13:20:48;96382.75;;;11.22;37.65
55271;BME280;41132;47.162;9.470;2023-03-16T13:28:31;96366.97;;;11.14;37.88
55271;BME280;41132;47.162;9.470;2023-03-16T13:30:59;96370.41;;;11.15;37.15
55271;BME280;41132;47.162;9.470;2023-03-16T13:33:32;96374.72;;;11.32;38.23
55271;BME280;41132;47.162;9.470;2023-03-16T13:36:02;96376.53;;;11.32;38.28
55271;BME280;41132;47.162;9.470;2023-03-16T13:38:30;96373.88;;;11.32;38.69
55271;BME280;41132;47.162;9.470;2023-03-16T13:41:01;96366.16;;;11.30;39.09
55271;BME280;41132;47.162;9.470;2023-03-16T13:43:29;96369.13;;;11.35;37.99
55271;BME280;41132;47.162;9.470;2023-03-16T13:45:57;96363.69;;;11.37;39.83
55271;BME280;41132;47.162;9.470;2023-03-16T13:48:23;96369.63;;;11.39;38.42
55271;BME280;41132;47.162;9.470;2023-03-16T13:50:55;96369.63;;;11.39;39.47
55271;BME280;41132;47.162;9.470;2023-03-16T13:53:26;96372.75;;;11.42;39.43
55271;BME280;41132;47.162;9.470;2023-03-16T13:55:54;96373.75;;;11.49;39.24
55271;BME280;41132;47.162;9.470;2023-03-16T14:00:48;96366.03;;;11.56;39.83
55271;BME280;41132;47.162;9.470;2023-03-16T14:03:18;96368.00;;;11.54;38.07
55271;BME280;41132;47.162;9.470;2023-03-16T14:05:46;96342.69;;;11.53;38.40
55271;BME280;41132;47.162;9.470;2023-03-16T14:10:42;96363.38;;;11.64;37.40
55271;BME280;41132;47.162;9.470;2023-03-16T14:16:13;96360.09;;;11.70;38.52
55271;BME280;41132;47.162;9.470;2023-03-16T14:18:46;96358.78;;;11.66;38.36
55271;BME280;41132;47.162;9.470;2023-03-16T14:21:21;96354.00;;;11.62;37.37
55271;BME280;41132;47.162;9.470;2023-03-16T14:24:01;96342.53;;;11.63;38.86
55271;BME280;41132;47.162;9.470;2023-03-16T14:26:39;96352.81;;;11.81;39.95
55271;BME280;41132;47.162;9.470;2023-03-16T14:29:10;96354.97;;;11.77;37.12